Time;durP1;ratioP1;P1;durP2;ratioP2;P2;SDS_P1;SDS_P2;PMS_P1;PMS_P2;Temp;Humidity;BMP_temperature;BMP_pressure;BME280_temperature;BME280_humidity;BME280_pressure;Samples;Min_cycle;Max_cycle;Signal;HPM_P1;HPM_P2
2022/11/30 00:06:36;;;;;;;;;;;13.30;93.00;;;;;;4589616;19;19914;-22
2022/11/30 00:11:39;;;;;;;;;;;13.30;92.80;;;;;;4591338;19;19922;-22
2022/11/30 00:13:10;;;;;;;;;;;13.20;92.80;;;;;;4591651;19;19919;-22
2022/11/30 00:14:41;;;;;;;;;;;13.20;92.80;;;;;;4591799;19;19911;-22
2022/11/30 00:16:11;;;;;;;;;;;13.20;92.80;;;;;;4591422;19;19923;-22
2022/11/30 00:24:46;;;;;;;;;;;13.20;92.80;;;;;;4590318;19;19915;-22
2022/11/30 00:26:17;;;;;;;;;;;13.20;92.80;;;;;;4589951;19;19930;-23
2022/11/30 00:37:00;;;;;;;;;;;13.20;92.70;;;;;;4590574;19;19926;-22
2022/11/30 00:38:31;;;;;;;;;;;13.30;92.90;;;;;;4590608;19;19927;-25
2022/11/30 00:40:02;;;;;;;;;;;13.20;92.70;;;;;;4591249;19;20382;-22
2022/11/30 00:41:33;;;;;;;;;;;13.20;92.60;;;;;;4590890;19;20322;-22
2022/11/30 00:48:15;;;;;;;;;;;13.20;92.50;;;;;;4590925;19;19927;-21
2022/11/30 00:49:46;;;;;;;;;;;13.20;92.50;;;;;;4590734;19;19936;-22
2022/11/30 00:54:48;;;;;;;;;;;13.30;92.50;;;;;;4590697;19;20326;-23
2022/11/30 00:56:20;;;;;;;;;;;13.30;92.50;;;;;;4590379;19;19923;-22
2022/11/30 01:01:22;;;;;;;;;;;13.20;92.40;;;;;;4589878;19;20004;-22
2022/11/30 01:02:54;;;;;;;;;;;13.20;92.40;;;;;;4590737;19;20013;-23
2022/11/30 01:04:25;;;;;;;;;;;13.20;92.50;;;;;;4590524;19;19978;-22
2022/11/30 01:06:07;;;;;;;;;;;13.20;92.40;;;;;;4589873;19;20330;-23
2022/11/30 01:11:11;;;;;;;;;;;13.20;92.40;;;;;;4590476;19;19947;-23
2022/11/30 01:12:42;;;;;;;;;;;13.20;92.40;;;;;;4589429;19;20325;-22
2022/11/30 01:17:45;;;;;;;;;;;13.20;92.30;;;;;;4589998;19;19919;-22
2022/11/30 01:19:16;;;;;;;;;;;13.10;92.30;;;;;;4589058;19;19922;-22
2022/11/30 01:20:47;;;;;;;;;;;13.20;92.50;;;;;;4589876;19;19915;-23
2022/11/30 01:25:53;;;;;;;;;;;13.20;92.70;;;;;;4589318;19;19953;-22
2022/11/30 01:30:59;;;;;;;;;;;13.20;92.70;;;;;;4589453;19;20394;-22
2022/11/30 01:32:30;;;;;;;;;;;13.30;92.70;;;;;;4589871;19;19926;-22
2022/11/30 01:34:01;;;;;;;;;;;13.30;92.70;;;;;;4589974;19;19921;-22
2022/11/30 01:35:32;;;;;;;;;;;13.30;92.60;;;;;;4589989;19;19919;-23
2022/11/30 01:42:20;;;;;;;;;;;13.20;92.70;;;;;;4589818;19;20023;-22
2022/11/30 01:47:32;;;;;;;;;;;13.20;92.60;;;;;;4589165;19;19914;-22
2022/11/30 01:52:35;;;;;;;;;;;13.20;92.70;;;;;;4589070;19;19981;-21
2022/11/30 01:54:07;;;;;;;;;;;13.20;92.60;;;;;;4589188;19;19919;-24
2022/11/30 01:55:39;;;;;;;;;;;13.20;92.60;;;;;;4589798;19;19983;-22
2022/11/30 01:57:13;;;;;;;;;;;13.20;92.60;;;;;;4589627;19;19919;-22
2022/11/30 01:58:44;;;;;;;;;;;13.20;92.60;;;;;;4588416;19;19915;-23
2022/11/30 02:03:54;;;;;;;;;;;13.20;92.50;;;;;;4589452;19;19919;-22
2022/11/30 02:05:26;;;;;;;;;;;13.10;92.50;;;;;;4588257;19;20281;-21
2022/11/30 02:06:57;;;;;;;;;;;13.10;92.50;;;;;;4588896;19;19911;-23
2022/11/30 02:08:27;;;;;;;;;;;13.10;92.40;;;;;;4588648;19;19918;-22
2022/11/30 02:09:59;;;;;;;;;;;13.20;92.40;;;;;;4588871;19;19919;-22
2022/11/30 02:11:29;;;;;;;;;;;13.10;92.50;;;;;;4589411;19;20246;-23
2022/11/30 02:16:50;;;;;;;;;;;13.20;92.40;;;;;;4593278;19;19919;-24
2022/11/30 02:18:23;;;;;;;;;;;13.10;92.40;;;;;;4593504;19;20272;-22
2022/11/30 02:23:45;;;;;;;;;;;13.20;92.30;;;;;;4593133;19;19951;-22
2022/11/30 02:25:19;;;;;;;;;;;13.20;92.30;;;;;;4593523;19;19926;-21
2022/11/30 02:32:13;;;;;;;;;;;13.20;92.30;;;;;;4591938;19;19943;-22
2022/11/30 02:33:44;;;;;;;;;;;13.20;92.30;;;;;;4593647;19;19915;-22
2022/11/30 02:35:16;;;;;;;;;;;13.20;92.30;;;;;;4593634;19;19923;-24
2022/11/30 02:36:47;;;;;;;;;;;13.20;92.50;;;;;;4592647;19;19914;-22
2022/11/30 02:38:19;;;;;;;;;;;13.20;92.30;;;;;;4592465;19;19945;-25
2022/11/30 02:39:50;;;;;;;;;;;13.20;92.30;;;;;;4593240;19;19978;-23
2022/11/30 02:41:21;;;;;;;;;;;13.20;92.30;;;;;;4592512;19;20350;-23
2022/11/30 02:42:54;;;;;;;;;;;13.20;92.30;;;;;;4593424;19;19971;-21
2022/11/30 02:49:47;;;;;;;;;;;13.20;92.20;;;;;;4593064;19;20362;-24
2022/11/30 02:58:18;;;;;;;;;;;13.20;92.20;;;;;;4592990;19;19919;-22
2022/11/30 03:03:12;;;;;;;;;;;13.20;92.20;;;;;;4592552;19;19927;-24
2022/11/30 03:09:59;;;;;;;;;;;13.20;92.10;;;;;;4592935;19;19915;-23
2022/11/30 03:13:16;;;;;;;;;;;13.20;92.10;;;;;;4592624;19;19922;-22
2022/11/30 03:14:47;;;;;;;;;;;13.20;92.10;;;;;;4592802;19;20243;-21
2022/11/30 03:19:49;;;;;;;;;;;13.10;92.30;;;;;;4592374;19;19944;-22
2022/11/30 03:21:20;;;;;;;;;;;13.20;92.40;;;;;;4592580;19;19919;-25
2022/11/30 03:28:12;;;;;;;;;;;13.20;92.70;;;;;;4591940;19;19915;-22
2022/11/30 03:33:14;;;;;;;;;;;13.20;92.60;;;;;;4590607;19;19932;-23
2022/11/30 03:36:31;;;;;;;;;;;13.20;92.60;;;;;;4591566;19;19915;-22
2022/11/30 03:38:02;;;;;;;;;;;13.20;92.60;;;;;;4592145;19;19919;-23
2022/11/30 03:43:05;;;;;;;;;;;13.10;92.60;;;;;;4592317;19;19927;-22
2022/11/30 03:44:36;;;;;;;;;;;13.10;92.60;;;;;;4591821;19;19922;-22
2022/11/30 03:51:23;;;;;;;;;;;13.20;92.60;;;;;;4592067;19;19922;-21
2022/11/30 03:52:55;;;;;;;;;;;13.20;92.40;;;;;;4591352;19;19931;-23
2022/11/30 03:54:25;;;;;;;;;;;13.20;92.40;;;;;;4592018;19;19925;-22
2022/11/30 03:55:57;;;;;;;;;;;13.20;92.40;;;;;;4592219;19;19919;-22
2022/11/30 03:57:28;;;;;;;;;;;13.20;92.40;;;;;;4591858;19;19978;-24
2022/11/30 03:59:00;;;;;;;;;;;13.20;92.40;;;;;;4591907;19;19922;-24
2022/11/30 04:04:02;;;;;;;;;;;13.20;92.40;;;;;;4591713;19;20321;-21
2022/11/30 04:09:04;;;;;;;;;;;13.20;92.30;;;;;;4591385;19;19978;-25
2022/11/30 04:10:36;;;;;;;;;;;13.20;92.20;;;;;;4591632;19;19927;-25
2022/11/30 04:12:07;;;;;;;;;;;13.20;92.30;;;;;;4591459;19;19949;-23
2022/11/30 04:17:09;;;;;;;;;;;13.20;92.20;;;;;;4591267;19;19918;-22
2022/11/30 04:18:40;;;;;;;;;;;13.20;92.20;;;;;;4591283;19;19925;-22
2022/11/30 04:27:14;;;;;;;;;;;13.20;92.10;;;;;;4591265;19;19915;-22
2022/11/30 04:28:45;;;;;;;;;;;13.10;92.30;;;;;;4591139;19;19914;-22
2022/11/30 04:30:16;;;;;;;;;;;13.20;92.10;;;;;;4591169;19;19949;-22
2022/11/30 04:35:18;;;;;;;;;;;13.10;92.00;;;;;;4587229;19;20245;-23
2022/11/30 04:36:49;;;;;;;;;;;13.20;92.00;;;;;;4593105;19;19923;-22
2022/11/30 04:38:20;;;;;;;;;;;13.10;92.00;;;;;;4591003;19;19927;-21
2022/11/30 04:39:51;;;;;;;;;;;13.10;91.90;;;;;;4592231;19;19942;-23
2022/11/30 04:41:22;;;;;;;;;;;13.10;92.00;;;;;;4591906;19;19923;-23
2022/11/30 04:42:53;;;;;;;;;;;13.10;92.00;;;;;;4590177;19;19911;-22
2022/11/30 04:44:24;;;;;;;;;;;13.20;91.90;;;;;;4590303;19;19919;-24
2022/11/30 04:45:55;;;;;;;;;;;13.30;91.80;;;;;;4590274;19;19927;-22
2022/11/30 04:47:26;;;;;;;;;;;13.40;91.80;;;;;;4590055;19;19925;-24
2022/11/30 04:48:57;;;;;;;;;;;13.40;91.70;;;;;;4590108;19;19919;-23
2022/11/30 04:50:28;;;;;;;;;;;13.50;91.60;;;;;;4589313;19;20264;-22
2022/11/30 04:51:59;;;;;;;;;;;13.50;91.70;;;;;;4591225;19;19979;-23
2022/11/30 04:53:30;;;;;;;;;;;13.60;91.60;;;;;;4589791;19;19923;-22
2022/11/30 04:55:03;;;;;;;;;;;13.60;91.50;;;;;;4588858;19;19918;-23
2022/11/30 04:56:35;;;;;;;;;;;13.60;91.40;;;;;;4589869;19;19946;-23
2022/11/30 04:58:06;;;;;;;;;;;13.60;91.40;;;;;;4591150;19;20006;-22
2022/11/30 04:59:37;;;;;;;;;;;13.60;91.60;;;;;;4590423;19;19927;-23
2022/11/30 05:01:08;;;;;;;;;;;13.60;91.40;;;;;;4588379;19;19943;-22
2022/11/30 05:02:39;;;;;;;;;;;13.60;91.30;;;;;;4591562;19;20368;-22
2022/11/30 05:04:10;;;;;;;;;;;13.60;91.20;;;;;;4590099;19;19919;-22
2022/11/30 05:05:41;;;;;;;;;;;13.60;91.20;;;;;;4591586;19;20333;-22
2022/11/30 05:07:12;;;;;;;;;;;13.60;91.20;;;;;;4589202;19;19940;-22
2022/11/30 05:08:43;;;;;;;;;;;13.60;91.20;;;;;;4589969;19;19911;-22
2022/11/30 05:10:14;;;;;;;;;;;13.60;91.20;;;;;;4591275;19;19941;-22
2022/11/30 05:11:47;;;;;;;;;;;13.70;91.20;;;;;;4591382;19;20283;-23
2022/11/30 05:13:18;;;;;;;;;;;13.70;91.20;;;;;;4591147;19;19914;-23
2022/11/30 05:14:49;;;;;;;;;;;13.70;91.30;;;;;;4591137;19;19925;-22
2022/11/30 05:16:20;;;;;;;;;;;13.60;91.20;;;;;;4590895;19;20030;-23
2022/11/30 05:17:51;;;;;;;;;;;13.80;91.10;;;;;;4591017;19;19930;-22
2022/11/30 05:19:22;;;;;;;;;;;13.70;91.20;;;;;;4591548;19;19919;-22
2022/11/30 05:20:53;;;;;;;;;;;13.70;91.20;;;;;;4591701;19;20321;-24
2022/11/30 05:22:25;;;;;;;;;;;13.80;91.60;;;;;;4589702;19;20376;-22
2022/11/30 05:23:55;;;;;;;;;;;13.90;91.20;;;;;;4590435;19;19918;-23
2022/11/30 05:25:26;;;;;;;;;;;13.80;91.10;;;;;;4591679;19;19931;-22
2022/11/30 05:26:58;;;;;;;;;;;13.70;91.10;;;;;;4590155;19;19919;-24
2022/11/30 05:28:29;;;;;;;;;;;13.60;91.20;;;;;;4588935;19;19922;-22
2022/11/30 05:30:00;;;;;;;;;;;13.60;91.20;;;;;;4590231;19;20385;-23
2022/11/30 05:31:32;;;;;;;;;;;13.50;91.30;;;;;;4589943;19;20263;-25
2022/11/30 05:33:03;;;;;;;;;;;13.40;91.30;;;;;;4590757;19;19926;-23
2022/11/30 05:34:34;;;;;;;;;;;13.40;91.30;;;;;;4590755;19;20253;-22
2022/11/30 05:36:05;;;;;;;;;;;13.40;91.30;;;;;;4589817;19;19922;-22
2022/11/30 05:37:36;;;;;;;;;;;13.40;91.40;;;;;;4591684;19;20326;-28
2022/11/30 05:39:07;;;;;;;;;;;13.40;91.30;;;;;;4590131;19;19918;-22
2022/11/30 05:40:38;;;;;;;;;;;13.40;91.30;;;;;;4590176;19;19910;-22
2022/11/30 05:45:45;;;;;;;;;;;13.40;91.30;;;;;;4588382;19;19922;-22
2022/11/30 05:47:16;;;;;;;;;;;13.40;91.30;;;;;;4592467;19;19931;-22
2022/11/30 05:48:47;;;;;;;;;;;13.30;91.20;;;;;;4594111;19;20326;-22
2022/11/30 05:50:18;;;;;;;;;;;13.30;91.20;;;;;;4594373;19;20258;-22
2022/11/30 05:51:50;;;;;;;;;;;13.30;91.20;;;;;;4595190;19;19911;-23
2022/11/30 05:53:20;;;;;;;;;;;13.30;91.20;;;;;;4594288;19;19938;-23
2022/11/30 05:54:52;;;;;;;;;;;13.30;91.20;;;;;;4594559;19;20360;-22
2022/11/30 05:56:23;;;;;;;;;;;13.30;91.20;;;;;;4596304;19;20245;-21
2022/11/30 05:57:54;;;;;;;;;;;13.30;91.20;;;;;;4595535;19;20337;-23
2022/11/30 05:59:26;;;;;;;;;;;13.30;91.10;;;;;;4594684;19;19925;-23
2022/11/30 06:00:57;;;;;;;;;;;13.30;91.20;;;;;;4596147;19;19994;-22
2022/11/30 06:02:28;;;;;;;;;;;13.30;91.20;;;;;;4594569;19;20315;-22
2022/11/30 06:04:03;;;;;;;;;;;13.30;91.20;;;;;;4594069;19;19957;-23
2022/11/30 06:05:35;;;;;;;;;;;13.30;91.20;;;;;;4594418;19;19975;-22
2022/11/30 06:07:10;;;;;;;;;;;13.20;91.30;;;;;;4594878;19;19937;-22
2022/11/30 06:08:41;;;;;;;;;;;13.20;91.20;;;;;;4592805;19;19922;-23
2022/11/30 06:10:12;;;;;;;;;;;13.30;91.30;;;;;;4594605;19;19953;-22
2022/11/30 06:11:43;;;;;;;;;;;13.30;91.40;;;;;;4594049;19;19951;-22
2022/11/30 06:13:15;;;;;;;;;;;13.30;91.40;;;;;;4593518;19;19926;-22
2022/11/30 06:14:46;;;;;;;;;;;13.30;91.30;;;;;;4594031;19;19937;-25
2022/11/30 06:16:17;;;;;;;;;;;13.30;91.40;;;;;;4593841;19;19914;-22
2022/11/30 06:17:48;;;;;;;;;;;13.20;91.40;;;;;;4593559;19;19917;-25
2022/11/30 06:19:19;;;;;;;;;;;13.20;91.30;;;;;;4595377;19;19919;-23
2022/11/30 06:20:51;;;;;;;;;;;13.20;91.30;;;;;;4595553;19;19986;-22
2022/11/30 06:22:22;;;;;;;;;;;13.30;91.30;;;;;;4594313;19;20425;-22
2022/11/30 06:23:53;;;;;;;;;;;13.30;91.30;;;;;;4595659;19;19936;-22
2022/11/30 06:25:25;;;;;;;;;;;13.30;91.30;;;;;;4593945;19;19974;-23
2022/11/30 06:26:56;;;;;;;;;;;13.30;91.30;;;;;;4593656;19;19915;-25
2022/11/30 06:28:27;;;;;;;;;;;13.30;91.30;;;;;;4594141;19;19982;-23
2022/11/30 06:29:58;;;;;;;;;;;13.30;91.20;;;;;;4595246;19;19915;-22
2022/11/30 06:31:30;;;;;;;;;;;13.30;91.20;;;;;;4592878;19;19910;-22
2022/11/30 06:33:01;;;;;;;;;;;13.30;91.20;;;;;;4594781;19;20480;-24
2022/11/30 06:34:32;;;;;;;;;;;13.30;91.20;;;;;;4597262;19;19938;-21
2022/11/30 06:36:03;;;;;;;;;;;13.40;91.20;;;;;;4593016;19;19923;-22
2022/11/30 06:37:34;;;;;;;;;;;13.40;91.10;;;;;;4594813;19;20282;-22
2022/11/30 06:39:07;;;;;;;;;;;13.40;91.10;;;;;;4596492;19;19948;-23
2022/11/30 06:40:39;;;;;;;;;;;13.30;91.10;;;;;;4594432;19;20081;-22
2022/11/30 06:42:10;;;;;;;;;;;13.30;91.10;;;;;;4595887;19;19935;-22
2022/11/30 06:43:41;;;;;;;;;;;13.30;91.10;;;;;;4595119;19;19957;-21
2022/11/30 06:45:13;;;;;;;;;;;13.30;91.20;;;;;;4593522;19;19953;-22
2022/11/30 06:46:44;;;;;;;;;;;13.20;91.20;;;;;;4593186;19;19918;-22
2022/11/30 06:48:15;;;;;;;;;;;13.30;91.30;;;;;;4595887;19;19953;-24
2022/11/30 06:49:47;;;;;;;;;;;13.30;91.30;;;;;;4593756;19;20337;-22
2022/11/30 06:51:18;;;;;;;;;;;13.30;91.20;;;;;;4594112;19;19920;-22
2022/11/30 06:52:49;;;;;;;;;;;13.30;91.20;;;;;;4595906;19;19911;-22
2022/11/30 06:54:21;;;;;;;;;;;13.20;91.20;;;;;;4596551;19;19927;-22
2022/11/30 06:55:52;;;;;;;;;;;13.30;91.30;;;;;;4594210;19;19944;-22
2022/11/30 06:57:29;;;;;;;;;;;13.30;91.30;;;;;;4595328;19;19970;-23
2022/11/30 06:59:00;;;;;;;;;;;13.20;91.20;;;;;;4595793;19;19936;-22
2022/11/30 07:00:31;;;;;;;;;;;13.20;91.30;;;;;;4593860;19;19927;-22
2022/11/30 07:02:03;;;;;;;;;;;13.20;91.30;;;;;;4596693;19;19930;-22
2022/11/30 07:03:34;;;;;;;;;;;13.20;91.20;;;;;;4596525;19;20326;-21
2022/11/30 07:05:05;;;;;;;;;;;13.20;91.20;;;;;;4593811;19;19938;-22
2022/11/30 07:06:36;;;;;;;;;;;13.20;91.20;;;;;;4594666;19;19925;-22
2022/11/30 07:08:07;;;;;;;;;;;13.20;91.30;;;;;;4595800;19;19915;-22
2022/11/30 07:09:39;;;;;;;;;;;13.20;91.20;;;;;;4593684;19;20329;-22
2022/11/30 07:11:10;;;;;;;;;;;13.20;91.30;;;;;;4595567;19;19913;-22
2022/11/30 07:12:41;;;;;;;;;;;13.20;91.20;;;;;;4594410;19;19936;-22
2022/11/30 07:14:12;;;;;;;;;;;13.20;91.30;;;;;;4592698;19;19911;-21
2022/11/30 07:15:43;;;;;;;;;;;13.20;91.40;;;;;;4595931;19;19936;-22
2022/11/30 07:17:14;;;;;;;;;;;13.20;91.40;;;;;;4594921;19;20274;-22
2022/11/30 07:18:45;;;;;;;;;;;13.20;91.30;;;;;;4592976;19;19928;-22
2022/11/30 07:20:35;;;;;;;;;;;13.20;91.40;;;;;;4594476;19;19947;-22
2022/11/30 07:22:06;;;;;;;;;;;13.20;91.30;;;;;;4595796;19;19979;-23
2022/11/30 07:27:17;;;;;;;;;;;13.30;91.30;;;;;;4593063;19;20026;-21
2022/11/30 07:28:53;;;;;;;;;;;13.30;91.20;;;;;;4592707;19;20015;-24
2022/11/30 07:30:24;;;;;;;;;;;13.30;91.30;;;;;;4593392;19;19919;-23
2022/11/30 07:31:55;;;;;;;;;;;13.20;91.20;;;;;;4590381;19;20247;-22
2022/11/30 07:33:26;;;;;;;;;;;13.20;91.30;;;;;;4591061;19;19926;-22
2022/11/30 07:34:57;;;;;;;;;;;13.20;91.20;;;;;;4592392;19;20327;-25
2022/11/30 07:36:30;;;;;;;;;;;13.20;91.20;;;;;;4591692;19;19921;-23
2022/11/30 07:38:01;;;;;;;;;;;13.20;91.30;;;;;;4591116;19;19919;-25
2022/11/30 07:39:32;;;;;;;;;;;13.30;91.30;;;;;;4592685;19;19932;-21
2022/11/30 07:41:03;;;;;;;;;;;13.20;91.40;;;;;;4591006;19;19978;-22
2022/11/30 07:42:34;;;;;;;;;;;13.20;91.40;;;;;;4590334;19;19984;-22
2022/11/30 07:44:06;;;;;;;;;;;13.20;91.30;;;;;;4591710;19;19943;-22
2022/11/30 07:45:37;;;;;;;;;;;13.20;91.30;;;;;;4592038;19;19915;-22
2022/11/30 07:47:08;;;;;;;;;;;13.20;91.30;;;;;;4592262;19;19935;-22
2022/11/30 07:48:39;;;;;;;;;;;13.20;91.30;;;;;;4591587;19;19911;-23
2022/11/30 07:50:11;;;;;;;;;;;13.20;91.30;;;;;;4589834;19;19919;-21
2022/11/30 07:51:42;;;;;;;;;;;13.10;91.20;;;;;;4591199;19;19911;-22
2022/11/30 07:53:13;;;;;;;;;;;13.10;91.30;;;;;;4590562;19;19915;-21
2022/11/30 07:54:44;;;;;;;;;;;13.10;91.40;;;;;;4589604;19;19922;-24
2022/11/30 07:56:18;;;;;;;;;;;13.20;91.20;;;;;;4591027;19;19926;-23
2022/11/30 07:57:49;;;;;;;;;;;13.20;91.30;;;;;;4591288;19;20254;-22
2022/11/30 07:59:20;;;;;;;;;;;13.20;91.20;;;;;;4590711;19;19917;-22
2022/11/30 08:00:51;;;;;;;;;;;13.20;91.20;;;;;;4591136;19;19925;-21
2022/11/30 08:02:22;;;;;;;;;;;13.20;91.20;;;;;;4594593;19;19978;-23
2022/11/30 08:03:54;;;;;;;;;;;13.20;91.20;;;;;;4593356;19;19922;-22
2022/11/30 08:05:24;;;;;;;;;;;13.20;91.30;;;;;;4593050;19;20397;-21
2022/11/30 08:06:56;;;;;;;;;;;13.20;91.20;;;;;;4593474;19;20275;-22
2022/11/30 08:08:28;;;;;;;;;;;13.20;91.20;;;;;;4591681;19;19943;-21
2022/11/30 08:09:59;;;;;;;;;;;13.20;91.20;;;;;;4591527;19;19922;-22
2022/11/30 08:11:32;;;;;;;;;;;13.20;91.20;;;;;;4593952;19;19919;-21
2022/11/30 08:13:03;;;;;;;;;;;13.20;91.20;;;;;;4592337;19;19923;-24
2022/11/30 08:14:34;;;;;;;;;;;13.20;91.20;;;;;;4592955;19;19919;-22
2022/11/30 08:16:06;;;;;;;;;;;13.20;91.20;;;;;;4593698;19;20353;-22
2022/11/30 08:17:37;;;;;;;;;;;13.20;91.20;;;;;;4591076;19;19935;-23
2022/11/30 08:19:08;;;;;;;;;;;13.20;91.20;;;;;;4591799;19;19923;-23
2022/11/30 08:20:39;;;;;;;;;;;13.20;91.20;;;;;;4593882;19;19936;-21
2022/11/30 08:22:10;;;;;;;;;;;13.20;91.20;;;;;;4592306;19;19923;-22
2022/11/30 08:24:00;;;;;;;;;;;13.20;91.20;;;;;;4591971;19;19927;-22
2022/11/30 08:25:33;;;;;;;;;;;13.20;91.10;;;;;;4593764;19;19919;-23
2022/11/30 08:27:04;;;;;;;;;;;13.20;91.10;;;;;;4591936;19;19918;-22
2022/11/30 08:28:42;;;;;;;;;;;13.20;91.10;;;;;;4591183;19;19926;-22
2022/11/30 08:30:13;;;;;;;;;;;13.20;91.10;;;;;;4594040;19;20361;-23
2022/11/30 08:31:44;;;;;;;;;;;13.20;91.10;;;;;;4592108;19;20369;-21
2022/11/30 08:33:15;;;;;;;;;;;13.20;91.10;;;;;;4592368;19;19922;-22
2022/11/30 08:34:46;;;;;;;;;;;13.20;91.00;;;;;;4593786;19;19973;-23
2022/11/30 08:36:18;;;;;;;;;;;13.20;91.10;;;;;;4591604;19;19919;-22
2022/11/30 08:37:49;;;;;;;;;;;13.20;91.00;;;;;;4591644;19;19979;-26
2022/11/30 08:39:21;;;;;;;;;;;13.20;91.00;;;;;;4594026;19;20322;-22
2022/11/30 08:40:55;;;;;;;;;;;13.20;91.10;;;;;;4591817;19;20256;-27
2022/11/30 08:42:26;;;;;;;;;;;13.20;91.00;;;;;;4591692;19;20270;-24
2022/11/30 08:43:57;;;;;;;;;;;13.20;91.00;;;;;;4592556;19;20001;-22
2022/11/30 08:45:28;;;;;;;;;;;13.20;91.00;;;;;;4591917;19;20314;-21
2022/11/30 08:46:59;;;;;;;;;;;13.20;91.10;;;;;;4591513;19;20376;-22
2022/11/30 08:48:30;;;;;;;;;;;13.20;91.00;;;;;;4592906;19;19919;-24
2022/11/30 08:50:03;;;;;;;;;;;13.20;91.10;;;;;;4593597;19;19911;-23
2022/11/30 08:51:34;;;;;;;;;;;13.20;91.00;;;;;;4590465;19;19919;-22
2022/11/30 08:53:05;;;;;;;;;;;13.20;91.00;;;;;;4592235;19;19915;-22
2022/11/30 08:54:38;;;;;;;;;;;13.20;91.00;;;;;;4593317;19;19974;-23
2022/11/30 08:56:13;;;;;;;;;;;13.20;91.00;;;;;;4590912;19;19942;-24
2022/11/30 08:57:44;;;;;;;;;;;13.30;91.00;;;;;;4593868;19;19919;-22
2022/11/30 08:59:15;;;;;;;;;;;13.30;91.10;;;;;;4593630;19;20319;-23
2022/11/30 09:00:46;;;;;;;;;;;13.40;91.20;;;;;;4590907;19;19922;-22
2022/11/30 09:02:18;;;;;;;;;;;13.40;90.90;;;;;;4593569;19;19951;-22
2022/11/30 09:03:51;;;;;;;;;;;13.50;90.80;;;;;;4593496;19;19919;-22
2022/11/30 09:05:22;;;;;;;;;;;13.50;90.70;;;;;;4589623;19;19934;-24
2022/11/30 09:06:57;;;;;;;;;;;13.60;90.80;;;;;;4592364;19;19936;-22
2022/11/30 09:08:30;;;;;;;;;;;13.60;90.70;;;;;;4593139;19;19915;-22
2022/11/30 09:10:01;;;;;;;;;;;13.60;90.60;;;;;;4590763;19;19919;-24
2022/11/30 09:11:32;;;;;;;;;;;13.60;90.60;;;;;;4593130;19;19910;-24
2022/11/30 09:13:05;;;;;;;;;;;13.60;90.70;;;;;;4591752;19;19923;-23
2022/11/30 09:14:36;;;;;;;;;;;13.60;90.70;;;;;;4590485;19;19984;-22
2022/11/30 09:16:07;;;;;;;;;;;13.60;90.70;;;;;;4593245;19;19932;-23
2022/11/30 09:17:38;;;;;;;;;;;13.60;90.70;;;;;;4592782;19;19923;-22
2022/11/30 09:19:09;;;;;;;;;;;13.70;90.80;;;;;;4590770;19;19922;-22
2022/11/30 09:20:40;;;;;;;;;;;13.60;90.80;;;;;;4593306;19;19926;-21
2022/11/30 09:22:12;;;;;;;;;;;13.60;90.70;;;;;;4592077;19;19911;-24
2022/11/30 09:23:44;;;;;;;;;;;13.60;90.80;;;;;;4590573;19;19919;-22
2022/11/30 09:25:16;;;;;;;;;;;13.60;90.90;;;;;;4592456;19;19923;-23
2022/11/30 09:26:47;;;;;;;;;;;13.60;90.90;;;;;;4590822;19;19922;-24
2022/11/30 09:28:18;;;;;;;;;;;13.60;90.90;;;;;;4590376;19;19925;-23
2022/11/30 09:29:49;;;;;;;;;;;13.60;90.90;;;;;;4592375;19;19926;-22
2022/11/30 09:31:23;;;;;;;;;;;13.60;90.90;;;;;;4592595;19;20354;-22
2022/11/30 09:32:54;;;;;;;;;;;13.60;90.90;;;;;;4590444;19;19915;-21
2022/11/30 09:34:25;;;;;;;;;;;13.60;90.90;;;;;;4592112;19;19951;-24
2022/11/30 09:35:57;;;;;;;;;;;13.60;90.90;;;;;;4590550;19;19919;-22
2022/11/30 09:37:28;;;;;;;;;;;13.60;90.90;;;;;;4591450;19;19915;-24
2022/11/30 09:38:59;;;;;;;;;;;13.50;90.80;;;;;;4590755;19;19922;-22
2022/11/30 09:40:30;;;;;;;;;;;13.60;90.90;;;;;;4591080;19;19956;-23
2022/11/30 09:42:04;;;;;;;;;;;13.60;90.90;;;;;;4589727;19;19946;-22
2022/11/30 09:43:54;;;;;;;;;;;13.50;91.00;;;;;;4591691;19;20262;-22
2022/11/30 09:45:29;;;;;;;;;;;13.50;91.00;;;;;;4591757;19;19971;-22
2022/11/30 09:47:23;;;;;;;;;;;13.50;91.00;;;;;;4588646;19;19922;-22
2022/11/30 09:48:55;;;;;;;;;;;13.50;91.00;;;;;;4590615;19;20267;-22
2022/11/30 09:50:27;;;;;;;;;;;13.50;91.10;;;;;;4590279;19;19945;-23
2022/11/30 09:52:02;;;;;;;;;;;13.50;91.20;;;;;;4588087;19;20334;-24
2022/11/30 09:53:37;;;;;;;;;;;13.50;91.10;;;;;;4589542;19;19915;-22
2022/11/30 09:55:09;;;;;;;;;;;13.50;91.00;;;;;;4589949;19;19961;-22
2022/11/30 09:56:41;;;;;;;;;;;13.30;91.20;;;;;;4587837;19;19946;-22
2022/11/30 09:58:32;;;;;;;;;;;13.30;91.30;;;;;;4590789;19;19915;-22
2022/11/30 10:00:04;;;;;;;;;;;13.40;91.30;;;;;;4590724;19;19918;-22
2022/11/30 10:01:36;;;;;;;;;;;13.40;91.30;;;;;;4587888;19;19957;-22
2022/11/30 10:03:07;;;;;;;;;;;13.40;91.20;;;;;;4590638;19;20322;-22
2022/11/30 10:04:39;;;;;;;;;;;13.40;91.20;;;;;;4591030;19;19911;-22
2022/11/30 10:06:17;;;;;;;;;;;13.40;91.20;;;;;;4586982;19;19952;-25
2022/11/30 10:07:51;;;;;;;;;;;13.50;91.40;;;;;;4590251;19;19926;-22
2022/11/30 10:09:29;;;;;;;;;;;13.50;91.30;;;;;;4590262;19;20248;-22
2022/11/30 10:11:00;;;;;;;;;;;13.50;91.30;;;;;;4587717;19;19911;-23
2022/11/30 10:12:33;;;;;;;;;;;13.50;91.20;;;;;;4587743;19;20250;-22
2022/11/30 10:14:16;;;;;;;;;;;13.40;91.20;;;;;;4587645;19;20338;-22
2022/11/30 10:15:50;;;;;;;;;;;13.40;91.10;;;;;;4587972;19;19925;-22
2022/11/30 10:17:24;;;;;;;;;;;13.40;91.10;;;;;;4588121;19;19936;-23
2022/11/30 10:18:55;;;;;;;;;;;13.40;91.10;;;;;;4588054;19;19937;-22
2022/11/30 10:20:45;;;;;;;;;;;13.40;91.20;;;;;;4587519;19;19915;-22
2022/11/30 10:22:22;;;;;;;;;;;13.40;91.20;;;;;;4587797;19;20309;-22
2022/11/30 10:24:05;;;;;;;;;;;13.40;91.20;;;;;;4587446;19;19933;-23
2022/11/30 10:25:36;;;;;;;;;;;13.40;91.20;;;;;;4587917;19;19950;-22
2022/11/30 10:27:11;;;;;;;;;;;13.40;91.20;;;;;;4590199;19;19923;-22
2022/11/30 10:28:53;;;;;;;;;;;13.40;91.00;;;;;;4588799;19;19959;-22
2022/11/30 10:30:24;;;;;;;;;;;13.40;91.10;;;;;;4589495;19;19915;-22
2022/11/30 10:31:59;;;;;;;;;;;13.40;91.00;;;;;;4588532;19;19915;-22
2022/11/30 10:33:31;;;;;;;;;;;13.40;91.00;;;;;;4591131;19;19914;-23
2022/11/30 10:35:17;;;;;;;;;;;13.40;91.00;;;;;;4592208;19;19926;-22
2022/11/30 10:36:53;;;;;;;;;;;13.40;91.10;;;;;;4593970;19;19943;-22
2022/11/30 10:38:35;;;;;;;;;;;13.40;91.10;;;;;;4594576;19;19914;-22
2022/11/30 10:40:10;;;;;;;;;;;13.40;91.10;;;;;;4594572;19;19962;-22
2022/11/30 10:41:52;;;;;;;;;;;13.50;91.20;;;;;;4596118;19;20121;-23
2022/11/30 10:43:28;;;;;;;;;;;13.40;91.10;;;;;;4592541;19;19911;-22
2022/11/30 10:45:10;;;;;;;;;;;13.40;91.20;;;;;;4593506;19;19919;-22
2022/11/30 10:46:51;;;;;;;;;;;13.40;91.10;;;;;;4593032;19;19938;-23
2022/11/30 10:48:28;;;;;;;;;;;13.40;91.00;;;;;;4594330;19;19914;-22
2022/11/30 10:49:59;;;;;;;;;;;13.40;91.10;;;;;;4593988;19;20299;-22
2022/11/30 10:51:30;;;;;;;;;;;13.40;91.10;;;;;;4594618;19;20426;-23
2022/11/30 10:53:02;;;;;;;;;;;13.40;91.40;;;;;;4592310;19;19966;-22
2022/11/30 10:54:35;;;;;;;;;;;13.40;91.40;;;;;;4594758;19;19931;-25
2022/11/30 10:56:09;;;;;;;;;;;13.40;91.20;;;;;;4594522;19;19947;-22
2022/11/30 10:57:59;;;;;;;;;;;13.40;91.20;;;;;;4592406;19;19931;-22
2022/11/30 10:59:43;;;;;;;;;;;13.40;91.10;;;;;;4595616;19;19930;-22
2022/11/30 11:01:34;;;;;;;;;;;13.40;91.10;;;;;;4595104;19;19910;-21
2022/11/30 11:03:22;;;;;;;;;;;13.40;91.00;;;;;;4593663;19;19927;-22
2022/11/30 11:05:06;;;;;;;;;;;13.40;91.20;;;;;;4594659;19;20333;-21
2022/11/30 11:06:44;;;;;;;;;;;13.40;91.20;;;;;;4591874;19;19915;-21
2022/11/30 11:08:16;;;;;;;;;;;13.40;91.20;;;;;;4594175;19;19919;-22
2022/11/30 11:09:50;;;;;;;;;;;13.40;91.30;;;;;;4594669;19;19918;-21
2022/11/30 11:11:37;;;;;;;;;;;13.40;91.20;;;;;;4592336;19;20349;-23
2022/11/30 11:13:15;;;;;;;;;;;13.40;91.20;;;;;;4594761;19;20234;-22
2022/11/30 11:14:46;;;;;;;;;;;13.40;91.10;;;;;;4593245;19;20318;-25
2022/11/30 11:16:17;;;;;;;;;;;13.40;91.00;;;;;;4593051;19;19914;-25
2022/11/30 11:17:49;;;;;;;;;;;13.40;91.20;;;;;;4594292;19;19918;-22
2022/11/30 11:19:25;;;;;;;;;;;13.40;90.90;;;;;;4594688;19;19915;-22
2022/11/30 11:21:03;;;;;;;;;;;13.40;90.90;;;;;;4593776;19;19922;-22
2022/11/30 11:22:35;;;;;;;;;;;13.40;90.80;;;;;;4594576;19;19926;-22
2022/11/30 11:24:07;;;;;;;;;;;13.40;90.70;;;;;;4593332;19;19926;-22
2022/11/30 11:25:41;;;;;;;;;;;13.40;90.70;;;;;;4592317;19;19943;-23
2022/11/30 11:27:21;;;;;;;;;;;13.40;90.70;;;;;;4593957;19;19939;-22
2022/11/30 11:28:55;;;;;;;;;;;13.40;90.90;;;;;;4592782;19;19911;-22
2022/11/30 11:30:27;;;;;;;;;;;13.40;91.00;;;;;;4592510;19;20396;-22
2022/11/30 11:32:06;;;;;;;;;;;13.40;90.80;;;;;;4594470;19;19986;-22
2022/11/30 11:33:37;;;;;;;;;;;13.40;90.80;;;;;;4592882;19;19980;-23